createdAt,value
2022-09-24T00:00:31.727Z,7.40
2022-09-24T00:10:38.372Z,6.10
2022-09-24T00:20:40.974Z,6.27
2022-09-24T00:30:44.350Z,6.83
2022-09-24T00:40:46.173Z,6.23
2022-09-24T00:50:48.359Z,6.23
2022-09-24T01:00:54.645Z,6.03
2022-09-24T01:11:30.050Z,5.80
2022-09-24T01:21:55.287Z,5.83
2022-09-24T01:32:09.699Z,5.53
2022-09-24T01:42:12.125Z,5.80
2022-09-24T01:52:18.719Z,5.33
2022-09-24T02:02:28.653Z,5.90
2022-09-24T02:12:42.311Z,5.80
2022-09-24T02:22:45.712Z,5.70
2022-09-24T02:32:49.017Z,5.47
2022-09-24T02:42:50.653Z,5.57
2022-09-24T02:52:53.002Z,5.37
2022-09-24T03:02:54.681Z,5.77
2022-09-24T03:12:56.776Z,5.73
2022-09-24T03:22:58.433Z,6.30
2022-09-24T03:33:00.330Z,5.87
2022-09-24T03:43:01.981Z,6.03
2022-09-24T03:53:04.421Z,5.80
2022-09-24T04:03:06.670Z,5.93
2022-09-24T04:13:09.531Z,5.60
2022-09-24T04:23:11.961Z,5.90
2022-09-24T04:33:13.556Z,5.50
2022-09-24T04:43:15.218Z,6.50
2022-09-24T04:53:17.218Z,6.33
2022-09-24T05:03:21.212Z,6.27
2022-09-24T05:13:22.866Z,5.63
2022-09-24T05:23:25.100Z,5.70
2022-09-24T05:33:26.926Z,6.13
2022-09-24T05:43:28.658Z,16.13
2022-09-24T05:53:30.308Z,6.60
2022-09-24T06:03:32.180Z,7.53
2022-09-24T06:13:34.918Z,6.97
2022-09-24T06:23:37.825Z,7.63
2022-09-24T06:33:40.399Z,7.50
2022-09-24T06:43:42.068Z,9.80
2022-09-24T06:53:43.669Z,8.53
2022-09-24T07:03:45.308Z,8.27
2022-09-24T07:13:46.941Z,8.40
2022-09-24T07:23:48.661Z,7.67
2022-09-24T07:33:50.274Z,7.80
2022-09-24T07:43:52.019Z,7.80
2022-09-24T07:53:54.892Z,8.97
2022-09-24T08:03:57.044Z,7.93
2022-09-24T08:13:59.198Z,9.23
2022-09-24T08:24:01.214Z,9.40
2022-09-24T08:34:03.067Z,8.73
2022-09-24T08:44:11.826Z,8.97
2022-09-24T08:54:15.782Z,9.90
2022-09-24T09:04:49.753Z,9.73
2022-09-24T09:14:56.203Z,8.20
2022-09-24T09:25:04.556Z,8.70
2022-09-24T09:35:22.633Z,8.37
2022-09-24T09:45:39.121Z,8.60
2022-09-24T09:55:40.757Z,8.33
2022-09-24T10:05:42.469Z,7.37
2022-09-24T10:15:58.486Z,8.40
2022-09-24T10:26:01.959Z,6.67
2022-09-24T10:36:24.408Z,6.60
2022-09-24T10:46:29.064Z,6.63
2022-09-24T10:56:36.447Z,7.10
2022-09-24T11:06:57.126Z,6.63
2022-09-24T11:17:16.677Z,5.90
2022-09-24T11:27:40.232Z,5.70
2022-09-24T11:38:00.954Z,5.70
2022-09-24T11:48:53.788Z,6.57
2022-09-24T11:59:08.914Z,4.63
2022-09-24T12:09:43.501Z,5.03
2022-09-24T12:20:01.618Z,5.10
2022-09-24T12:31:01.228Z,3.40
2022-09-24T12:41:30.187Z,3.70
2022-09-24T12:51:37.576Z,3.63
2022-09-24T13:01:40.213Z,3.03
2022-09-24T13:11:42.500Z,3.00
2022-09-24T13:21:53.851Z,3.20
2022-09-24T13:32:02.799Z,2.80
2022-09-24T13:42:14.091Z,2.70
2022-09-24T13:52:32.128Z,2.90
2022-09-24T14:02:38.323Z,3.07
2022-09-24T14:12:40.745Z,2.97
2022-09-24T14:22:45.358Z,2.97
2022-09-24T14:32:53.272Z,2.67
2022-09-24T14:43:03.246Z,3.00
2022-09-24T14:53:20.753Z,3.20
2022-09-24T15:03:37.449Z,2.70
2022-09-24T15:13:39.148Z,2.70
2022-09-24T15:23:40.767Z,3.00
2022-09-24T15:33:42.385Z,3.47
2022-09-24T15:43:44.070Z,3.30
2022-09-24T15:53:45.738Z,3.37
2022-09-24T16:03:47.431Z,3.57
2022-09-24T16:13:50.450Z,4.17
2022-09-24T16:23:57.984Z,5.70
2022-09-24T16:33:59.937Z,5.40
2022-09-24T16:44:01.900Z,4.40
2022-09-24T16:54:05.839Z,3.80
2022-09-24T17:04:07.547Z,3.70
2022-09-24T17:14:12.328Z,4.07
2022-09-24T17:24:19.123Z,3.80
2022-09-24T17:34:22.990Z,4.37
2022-09-24T17:44:24.599Z,4.90
2022-09-24T17:54:26.630Z,6.03
2022-09-24T18:04:31.096Z,7.20
2022-09-24T18:14:34.900Z,14.03
2022-09-24T18:24:36.512Z,6.90
2022-09-24T18:34:38.131Z,7.00
2022-09-24T18:44:40.199Z,5.93
2022-09-24T18:54:41.813Z,5.83
2022-09-24T19:04:43.890Z,7.47
2022-09-24T19:14:46.651Z,7.63
2022-09-24T19:24:48.585Z,7.00
2022-09-24T19:34:50.247Z,7.97
2022-09-24T19:44:52.151Z,8.20
2022-09-24T19:54:53.913Z,8.80
2022-09-24T20:16:20.349Z,9.57
2022-09-24T20:26:40.742Z,9.63
2022-09-24T20:36:42.773Z,9.57
2022-09-24T20:46:44.465Z,7.93
2022-09-24T20:56:46.132Z,10.20
2022-09-24T21:06:48.651Z,8.50
2022-09-24T21:16:50.299Z,8.90
2022-09-24T21:26:51.941Z,9.90
2022-09-24T21:36:53.701Z,9.73
2022-09-24T21:46:55.334Z,10.00
2022-09-24T21:56:56.963Z,8.87
2022-09-24T22:06:58.839Z,9.50
2022-09-24T22:17:01.326Z,9.17
2022-09-24T22:27:03.012Z,9.23
2022-09-24T22:37:06.075Z,13.07
2022-09-24T22:47:07.694Z,11.30
2022-09-24T22:57:09.355Z,10.87
2022-09-24T23:07:10.990Z,10.50
2022-09-24T23:17:12.685Z,10.40
2022-09-24T23:27:16.638Z,10.03
2022-09-24T23:37:19.298Z,10.67
2022-09-24T23:47:20.917Z,10.93
2022-09-24T23:57:22.564Z,9.97
